createdAt,value
2022-08-03T00:01:47.781Z,96527.66
2022-08-03T00:04:14.188Z,96529.63
2022-08-03T00:06:40.598Z,96528.53
2022-08-03T00:09:07.013Z,96529.97
2022-08-03T00:11:33.442Z,96530.28
2022-08-03T00:13:59.846Z,96529.63
2022-08-03T00:16:26.249Z,96536.91
2022-08-03T00:18:52.668Z,96529.56
2022-08-03T00:21:19.070Z,96522.25
2022-08-03T00:23:51.506Z,96526.16
2022-08-03T00:26:19.228Z,96529.56
2022-08-03T00:28:45.643Z,96528.38
2022-08-03T00:31:13.539Z,96527.28
2022-08-03T00:33:58.855Z,96524.19
2022-08-03T00:36:26.399Z,96531.91
2022-08-03T00:38:52.809Z,96528.03
2022-08-03T00:41:19.221Z,96526.91
2022-08-03T00:43:45.635Z,96527.25
2022-08-03T00:46:12.032Z,96520.78
2022-08-03T00:48:38.436Z,96522.31
2022-08-03T00:51:04.852Z,96520.78
2022-08-03T00:53:31.256Z,96523.47
2022-08-03T00:55:57.664Z,96525.81
2022-08-03T00:58:24.072Z,96518.06
2022-08-03T01:00:50.538Z,96520.75
2022-08-03T01:03:16.977Z,96518.50
2022-08-03T01:05:43.446Z,96517.69
2022-08-03T01:08:09.847Z,96519.66
2022-08-03T01:10:36.254Z,96521.97
2022-08-03T01:13:02.687Z,96520.00
2022-08-03T01:15:29.095Z,96514.28
2022-08-03T01:17:55.531Z,96513.94
2022-08-03T01:20:21.951Z,96513.50
2022-08-03T01:22:48.358Z,96510.88
2022-08-03T01:25:14.777Z,96515.44
2022-08-03T01:27:41.194Z,96512.28
2022-08-03T01:30:07.597Z,96515.81
2022-08-03T01:32:58.802Z,96505.81
2022-08-03T01:35:20.391Z,96510.81
2022-08-03T01:37:47.105Z,96515.38
2022-08-03T01:40:13.522Z,96503.50
2022-08-03T01:42:39.942Z,96506.94
2022-08-03T01:45:06.353Z,96508.88
2022-08-03T01:47:32.767Z,96508.50
2022-08-03T01:49:59.178Z,96503.94
2022-08-03T01:52:25.602Z,96504.69
2022-08-03T01:54:52.023Z,96503.53
2022-08-03T01:57:18.453Z,96503.66
2022-08-03T01:59:44.872Z,96503.22
2022-08-03T02:02:29.074Z,96503.97
2022-08-03T02:04:57.780Z,96500.91
2022-08-03T02:07:24.191Z,96499.28
2022-08-03T02:09:50.605Z,96494.63
2022-08-03T02:12:17.270Z,96505.09
2022-08-03T02:14:43.822Z,96498.09
2022-08-03T02:17:10.245Z,96509.63
2022-08-03T02:19:36.658Z,96501.94
2022-08-03T02:22:03.056Z,96505.09
2022-08-03T02:24:30.545Z,96500.78
2022-08-03T02:26:56.940Z,96500.81
2022-08-03T02:29:40.109Z,96507.34
2022-08-03T02:32:07.278Z,96501.56
2022-08-03T02:34:33.691Z,96506.28
2022-08-03T02:37:00.094Z,96510.50
2022-08-03T02:39:26.512Z,96509.22
2022-08-03T02:41:52.916Z,96508.53
2022-08-03T02:44:19.541Z,96502.41
2022-08-03T02:46:45.952Z,96512.44
2022-08-03T02:49:40.478Z,96510.53
2022-08-03T02:51:58.752Z,96508.56
2022-08-03T02:54:25.167Z,96514.75
2022-08-03T02:56:51.587Z,96508.56
2022-08-03T02:59:17.984Z,96511.25
2022-08-03T03:01:44.411Z,96505.53
2022-08-03T03:04:10.822Z,96512.84
2022-08-03T03:06:39.275Z,96506.28
2022-08-03T03:09:06.221Z,96511.34
2022-08-03T03:11:32.627Z,96514.00
2022-08-03T03:13:59.031Z,96517.06
2022-08-03T03:16:25.458Z,96515.13
2022-08-03T03:18:51.865Z,96509.03
2022-08-03T03:21:18.266Z,96513.63
2022-08-03T03:23:44.684Z,96512.47
2022-08-03T03:26:11.084Z,96515.16
2022-08-03T03:28:37.505Z,96520.97
2022-08-03T03:31:03.904Z,96517.47
2022-08-03T03:33:30.469Z,96519.00
2022-08-03T03:35:56.884Z,96521.72
2022-08-03T03:38:23.286Z,96522.13
2022-08-03T03:40:49.695Z,96520.22
2022-08-03T03:43:16.100Z,96520.94
2022-08-03T03:45:42.506Z,96516.00
2022-08-03T03:48:08.901Z,96522.88
2022-08-03T03:50:35.301Z,96525.19
2022-08-03T03:53:01.716Z,96529.44
2022-08-03T03:55:28.134Z,96531.41
2022-08-03T03:57:54.546Z,96531.84
2022-08-03T04:00:20.961Z,96534.91
2022-08-03T04:02:47.381Z,96530.72
2022-08-03T04:05:13.887Z,96545.69
2022-08-03T04:07:40.291Z,96533.03
2022-08-03T04:10:14.058Z,96539.53
2022-08-03T04:12:49.927Z,96539.50
2022-08-03T04:15:17.032Z,96536.47
2022-08-03T04:17:43.437Z,96528.41
2022-08-03T04:20:09.840Z,96524.53
2022-08-03T04:22:36.250Z,96541.50
2022-08-03T04:25:02.667Z,96531.06
2022-08-03T04:27:29.177Z,96535.31
2022-08-03T04:29:55.580Z,96533.72
2022-08-03T04:32:21.991Z,96534.91
2022-08-03T04:34:48.401Z,96540.31
2022-08-03T04:37:14.837Z,96539.53
2022-08-03T04:39:41.264Z,96544.94
2022-08-03T04:42:09.072Z,96540.34
2022-08-03T04:44:35.702Z,96541.91
2022-08-03T04:47:02.109Z,96550.31
2022-08-03T04:49:28.613Z,96541.84
2022-08-03T04:51:55.074Z,96544.94
2022-08-03T04:54:21.482Z,96551.56
2022-08-03T04:56:47.907Z,96544.97
2022-08-03T04:59:14.322Z,96549.56
2022-08-03T05:01:40.789Z,96543.44
2022-08-03T05:04:07.214Z,96556.53
2022-08-03T05:06:33.635Z,96557.72
2022-08-03T05:09:01.794Z,96553.06
2022-08-03T05:11:28.302Z,96560.00
2022-08-03T05:13:54.692Z,96559.56
2022-08-03T05:16:21.083Z,96553.75
2022-08-03T05:18:47.589Z,96556.88
2022-08-03T05:21:14.015Z,96559.13
2022-08-03T05:23:40.464Z,96555.69
2022-08-03T05:26:06.863Z,96551.91
2022-08-03T05:28:33.267Z,96556.09
2022-08-03T05:30:59.671Z,96557.66
2022-08-03T05:33:26.089Z,96560.75
2022-08-03T05:35:56.038Z,96558.06
2022-08-03T05:38:33.922Z,96563.44
2022-08-03T05:41:21.889Z,96563.03
2022-08-03T05:43:47.962Z,96563.81
2022-08-03T05:46:14.382Z,96571.53
2022-08-03T05:48:40.795Z,96567.69
2022-08-03T05:51:07.213Z,96567.31
2022-08-03T05:53:33.633Z,96569.59
2022-08-03T05:56:03.445Z,96571.13
2022-08-03T05:58:42.029Z,96564.56
2022-08-03T06:01:08.520Z,96570.34
2022-08-03T06:03:34.952Z,96570.09
2022-08-03T06:06:01.366Z,96564.09
2022-08-03T06:08:27.784Z,96572.91
2022-08-03T06:10:54.190Z,96569.31
2022-08-03T06:13:20.611Z,96565.44
2022-08-03T06:15:47.014Z,96562.72
2022-08-03T06:18:13.432Z,96565.81
2022-08-03T06:20:39.842Z,96566.16
2022-08-03T06:23:06.428Z,96569.19
2022-08-03T06:25:33.984Z,96567.31
2022-08-03T06:28:00.405Z,96562.38
2022-08-03T06:30:26.906Z,96561.22
2022-08-03T06:32:53.348Z,96572.09
2022-08-03T06:35:19.752Z,96568.56
2022-08-03T06:37:46.184Z,96570.13
2022-08-03T06:40:13.775Z,96584.75
2022-08-03T06:42:40.457Z,96583.97
2022-08-03T06:45:06.865Z,96584.75
2022-08-03T06:47:33.278Z,96591.66
2022-08-03T06:50:12.730Z,96590.16
2022-08-03T06:52:43.124Z,96590.19
2022-08-03T06:55:09.537Z,96587.06
2022-08-03T06:57:35.966Z,96593.22
2022-08-03T07:00:11.052Z,96601.31
2022-08-03T07:02:38.221Z,96597.19
2022-08-03T07:05:05.517Z,96591.81
2022-08-03T07:07:31.916Z,96598.41
2022-08-03T07:09:58.496Z,96594.22
2022-08-03T07:12:24.935Z,96592.63
2022-08-03T07:14:51.346Z,96596.13
2022-08-03T07:17:17.780Z,96597.66
2022-08-03T07:19:44.181Z,96602.25
2022-08-03T07:22:10.724Z,96613.88
2022-08-03T07:24:37.247Z,96609.97
2022-08-03T07:27:03.648Z,96613.44
2022-08-03T07:29:30.048Z,96609.91
2022-08-03T07:32:01.161Z,96608.41
2022-08-03T07:34:27.569Z,96615.72
2022-08-03T07:36:53.978Z,96621.88
2022-08-03T07:39:20.384Z,96616.56
2022-08-03T07:41:46.797Z,96621.16
2022-08-03T07:44:13.213Z,96623.50
2022-08-03T07:46:39.626Z,96624.72
2022-08-03T07:49:06.166Z,96616.97
2022-08-03T07:51:32.630Z,96620.03
2022-08-03T07:53:59.058Z,96618.91
2022-08-03T07:56:25.475Z,96613.94
2022-08-03T07:58:51.888Z,96622.72
2022-08-03T08:01:18.329Z,96609.25
2022-08-03T08:03:52.831Z,96618.09
2022-08-03T08:06:20.114Z,96620.06
2022-08-03T08:08:46.521Z,96620.44
2022-08-03T08:11:12.929Z,96613.53
2022-08-03T08:13:39.339Z,96626.63
2022-08-03T08:16:05.754Z,96617.78
2022-08-03T08:18:32.156Z,96623.53
2022-08-03T08:20:58.570Z,96619.72
2022-08-03T08:23:42.336Z,96619.66
2022-08-03T08:26:10.765Z,96618.09
2022-08-03T08:28:37.177Z,96618.13
2022-08-03T08:31:03.570Z,96619.28
2022-08-03T08:36:16.362Z,96608.06
2022-08-03T08:38:42.784Z,96608.84
2022-08-03T08:41:09.184Z,96608.84
2022-08-03T08:43:35.598Z,96599.97
2022-08-03T08:46:02.001Z,96607.66
2022-08-03T08:48:28.415Z,96599.97
2022-08-03T08:50:54.923Z,96604.16
2022-08-03T08:53:26.803Z,96599.13
2022-08-03T08:55:59.227Z,96590.31
2022-08-03T08:58:26.612Z,96591.84
2022-08-03T09:00:53.390Z,96595.72
2022-08-03T09:03:22.590Z,96606.16
2022-08-03T09:05:56.584Z,96591.56
2022-08-03T09:08:23.051Z,96599.63
2022-08-03T09:10:49.461Z,96598.06
2022-08-03T09:13:15.876Z,96592.25
2022-08-03T09:15:42.286Z,96587.22
2022-08-03T09:18:26.997Z,96586.81
2022-08-03T09:21:03.803Z,96597.59
2022-08-03T09:24:01.582Z,96591.78
2022-08-03T09:26:29.033Z,96589.09
2022-08-03T09:29:00.493Z,96590.25
2022-08-03T09:31:28.314Z,96588.72
2022-08-03T09:33:54.737Z,96593.72
2022-08-03T09:36:21.149Z,96583.69
2022-08-03T09:38:47.566Z,96583.69
2022-08-03T09:41:16.777Z,96578.31
2022-08-03T09:43:43.186Z,96589.44
2022-08-03T09:46:09.593Z,96581.41
2022-08-03T09:48:36.008Z,96577.94
2022-08-03T09:51:13.478Z,96577.50
2022-08-03T09:53:59.156Z,96570.59
2022-08-03T09:56:34.445Z,96570.59
2022-08-03T09:59:03.014Z,96577.09
2022-08-03T10:01:29.476Z,96575.13
2022-08-03T10:04:03.332Z,96570.94
2022-08-03T10:06:30.975Z,96569.41
2022-08-03T10:08:57.390Z,96563.63
2022-08-03T10:11:23.798Z,96565.19
2022-08-03T10:13:50.243Z,96557.13
2022-08-03T10:16:25.811Z,96554.78
2022-08-03T10:18:52.375Z,96548.19
2022-08-03T10:21:18.783Z,96549.72
2022-08-03T10:23:45.182Z,96557.44
2022-08-03T10:26:11.610Z,96545.13
2022-08-03T10:28:42.835Z,96545.88
2022-08-03T10:31:11.343Z,96543.97
2022-08-03T10:33:51.643Z,96539.28
2022-08-03T10:36:19.220Z,96540.06
2022-08-03T10:38:45.633Z,96528.13
2022-08-03T10:41:12.044Z,96536.63
2022-08-03T10:43:38.454Z,96537.75
2022-08-03T10:46:04.924Z,96532.41
2022-08-03T10:48:31.359Z,96534.28
2022-08-03T10:50:57.782Z,96533.09
2022-08-03T10:53:24.215Z,96540.34
2022-08-03T10:55:50.633Z,96534.19
2022-08-03T10:58:30.276Z,96529.97
2022-08-03T11:00:57.118Z,96526.44
2022-08-03T11:03:23.577Z,96525.28
2022-08-03T11:05:49.978Z,96521.41
2022-08-03T11:08:17.336Z,96518.69
2022-08-03T11:10:43.803Z,96517.53
2022-08-03T11:13:10.210Z,96508.28
2022-08-03T11:15:36.621Z,96512.53
2022-08-03T11:18:03.041Z,96512.50
2022-08-03T11:20:33.633Z,96509.75
2022-08-03T11:23:00.043Z,96504.75
2022-08-03T11:25:53.645Z,96501.69
2022-08-03T11:28:12.894Z,96501.25
2022-08-03T11:30:41.142Z,96502.72
2022-08-03T11:33:07.558Z,96503.91
2022-08-03T11:35:33.972Z,96501.22
2022-08-03T11:38:03.289Z,96499.63
2022-08-03T11:40:31.537Z,96492.00
2022-08-03T11:42:57.944Z,96496.56
2022-08-03T11:45:24.364Z,96495.66
2022-08-03T11:47:51.563Z,96488.41
2022-08-03T11:50:18.060Z,96484.56
2022-08-03T11:52:44.488Z,96476.47
2022-08-03T11:55:10.902Z,96485.69
2022-08-03T11:58:58.270Z,96474.91
2022-08-03T12:00:23.712Z,96479.09
2022-08-03T12:02:52.417Z,96473.69
2022-08-03T12:05:18.883Z,96473.53
2022-08-03T12:08:03.311Z,96467.38
2022-08-03T12:10:31.698Z,96471.66
2022-08-03T12:12:58.106Z,96462.78
2022-08-03T12:15:25.070Z,96469.00
2022-08-03T12:17:55.981Z,96464.72
2022-08-03T12:20:34.955Z,96461.66
2022-08-03T12:23:01.748Z,96462.78
2022-08-03T12:25:38.460Z,96453.53
2022-08-03T12:28:06.108Z,96458.53
2022-08-03T12:30:52.506Z,96456.22
2022-08-03T12:33:18.925Z,96445.75
2022-08-03T12:35:52.254Z,96449.22
2022-08-03T12:38:19.142Z,96443.81
2022-08-03T12:40:45.563Z,96440.72
2022-08-03T12:43:11.985Z,96439.19
2022-08-03T12:45:38.401Z,96440.31
2022-08-03T12:48:04.818Z,96440.28
2022-08-03T12:50:31.769Z,96436.97
2022-08-03T12:52:58.394Z,96433.25
2022-08-03T12:55:24.812Z,96429.41
2022-08-03T12:57:51.227Z,96421.38
2022-08-03T13:00:28.767Z,96424.78
2022-08-03T13:03:26.510Z,96418.22
2022-08-03T13:05:42.181Z,96419.56
2022-08-03T13:08:08.602Z,96418.75
2022-08-03T13:10:37.968Z,96419.88
2022-08-03T13:13:04.385Z,96417.59
2022-08-03T13:15:33.528Z,96411.91
2022-08-03T13:18:05.189Z,96408.81
2022-08-03T13:20:31.600Z,96406.47
2022-08-03T13:23:00.829Z,96411.16
2022-08-03T13:25:27.507Z,96407.13
2022-08-03T13:28:04.599Z,96397.09
2022-08-03T13:30:32.049Z,96407.56
2022-08-03T13:32:58.450Z,96410.28
2022-08-03T13:35:25.232Z,96397.16
2022-08-03T13:37:51.686Z,96402.84
2022-08-03T13:40:18.156Z,96404.06
2022-08-03T13:42:44.560Z,96400.38
2022-08-03T13:45:11.020Z,96394.69
2022-08-03T13:47:37.468Z,96391.28
2022-08-03T13:50:03.904Z,96385.50
2022-08-03T13:52:30.313Z,96390.53
2022-08-03T13:54:56.732Z,96390.91
2022-08-03T13:58:03.795Z,96393.22
2022-08-03T14:00:09.546Z,96379.31
2022-08-03T14:02:36.037Z,96383.94
2022-08-03T14:05:02.457Z,96381.97
2022-08-03T14:07:28.851Z,96376.94
2022-08-03T14:09:55.252Z,96363.06
2022-08-03T14:12:21.672Z,96359.84
2022-08-03T14:14:48.088Z,96364.78
2022-08-03T14:17:16.494Z,96357.06
2022-08-03T14:19:53.590Z,96360.56
2022-08-03T14:22:20.469Z,96352.06
2022-08-03T14:24:46.883Z,96352.06
2022-08-03T14:27:13.282Z,96350.41
2022-08-03T14:29:39.698Z,96348.47
2022-08-03T14:32:11.447Z,96349.25
2022-08-03T14:34:39.197Z,96338.00
2022-08-03T14:37:05.603Z,96338.00
2022-08-03T14:39:58.312Z,96344.97
2022-08-03T14:42:18.397Z,96343.03
2022-08-03T14:44:44.805Z,96330.31
2022-08-03T14:47:11.201Z,96339.56
2022-08-03T14:50:37.134Z,96338.00
2022-08-03T14:52:24.014Z,96334.94
2022-08-03T14:54:50.428Z,96324.91
2022-08-03T14:57:17.075Z,96327.97
2022-08-03T14:59:55.666Z,96322.50
2022-08-03T15:02:24.197Z,96327.81
2022-08-03T15:04:50.890Z,96322.09
2022-08-03T15:07:17.388Z,96323.25
2022-08-03T15:09:43.869Z,96319.38
2022-08-03T15:12:10.263Z,96312.81
2022-08-03T15:14:37.811Z,96308.50
2022-08-03T15:17:04.419Z,96320.84
2022-08-03T15:20:00.218Z,96316.22
2022-08-03T15:22:19.021Z,96312.75
2022-08-03T15:24:46.957Z,96303.78
2022-08-03T15:27:13.352Z,96309.56
2022-08-03T15:30:05.082Z,96305.97
2022-08-03T15:32:26.154Z,96303.69
2022-08-03T15:34:52.791Z,96297.94
2022-08-03T15:37:19.204Z,96291.69
2022-08-03T15:39:59.073Z,96290.13
2022-08-03T15:42:26.600Z,96287.81
2022-08-03T15:44:53.870Z,96287.75
2022-08-03T15:47:21.348Z,96288.13
2022-08-03T15:49:47.966Z,96287.00
2022-08-03T15:52:14.373Z,96280.38
2022-08-03T15:54:40.792Z,96282.59
2022-08-03T15:57:07.194Z,96287.63
2022-08-03T15:59:33.595Z,96283.41
2022-08-03T16:02:00.178Z,96281.59
2022-08-03T16:04:26.683Z,96282.66
2022-08-03T16:06:53.098Z,96276.13
2022-08-03T16:09:23.629Z,96275.38
2022-08-03T16:12:05.899Z,96277.66
2022-08-03T16:14:51.804Z,96272.25
2022-08-03T16:17:18.763Z,96276.47
2022-08-03T16:19:45.394Z,96269.97
2022-08-03T16:22:11.801Z,96272.25
2022-08-03T16:24:40.736Z,96266.06
2022-08-03T16:27:15.540Z,96273.00
2022-08-03T16:29:53.544Z,96268.75
2022-08-03T16:32:19.954Z,96268.75
2022-08-03T16:34:46.379Z,96263.69
2022-08-03T16:37:37.224Z,96267.91
2022-08-03T16:39:59.169Z,96264.38
2022-08-03T16:42:25.569Z,96256.69
2022-08-03T16:44:51.976Z,96256.28
2022-08-03T16:47:22.456Z,96260.44
2022-08-03T16:49:53.663Z,96258.41
2022-08-03T16:52:22.802Z,96250.31
2022-08-03T16:54:50.629Z,96254.94
2022-08-03T16:57:56.265Z,96253.34
2022-08-03T17:00:05.729Z,96254.88
2022-08-03T17:02:32.405Z,96255.97
2022-08-03T17:04:58.858Z,96254.03
2022-08-03T17:07:26.091Z,96250.94
2022-08-03T17:09:56.280Z,96252.44
2022-08-03T17:12:25.943Z,96253.22
2022-08-03T17:14:53.525Z,96253.53
2022-08-03T17:17:19.989Z,96251.59
2022-08-03T17:19:47.077Z,96248.91
2022-08-03T17:22:15.996Z,96250.06
2022-08-03T17:24:42.650Z,96254.03
2022-08-03T17:27:18.578Z,96241.72
2022-08-03T17:29:55.488Z,96245.31
2022-08-03T17:32:22.035Z,96247.19
2022-08-03T17:34:50.862Z,96242.53
2022-08-03T17:37:50.731Z,96250.22
2022-08-03T17:40:04.787Z,96252.53
2022-08-03T17:42:33.075Z,96242.50
2022-08-03T17:45:01.963Z,96247.13
2022-08-03T17:50:23.494Z,96259.06
2022-08-03T17:52:51.855Z,96249.00
2022-08-03T17:55:57.481Z,96252.44
2022-08-03T17:58:04.669Z,96258.22
2022-08-03T18:00:31.085Z,96254.75
2022-08-03T18:02:57.917Z,96257.81
2022-08-03T18:06:11.499Z,96264.75
2022-08-03T18:08:12.951Z,96264.03
2022-08-03T18:10:49.759Z,96261.78
2022-08-03T18:13:16.562Z,96259.91
2022-08-03T18:15:42.969Z,96262.97
2022-08-03T18:18:10.743Z,96273.13
2022-08-03T18:20:41.988Z,96267.88
2022-08-03T18:23:08.872Z,96273.78
2022-08-03T18:25:43.047Z,96273.00
2022-08-03T18:28:15.707Z,96271.47
2022-08-03T18:30:54.513Z,96272.41
2022-08-03T18:34:18.615Z,96277.13
2022-08-03T18:36:07.987Z,96269.84
2022-08-03T18:38:35.638Z,96270.66
2022-08-03T18:41:02.048Z,96278.88
2022-08-03T18:43:46.141Z,96274.72
2022-08-03T18:46:13.846Z,96280.13
2022-08-03T18:48:40.680Z,96278.25
2022-08-03T18:51:12.510Z,96268.28
2022-08-03T18:54:02.425Z,96276.38
2022-08-03T18:56:30.602Z,96274.50
2022-08-03T18:59:02.255Z,96278.38
2022-08-03T19:01:58.038Z,96274.53
2022-08-03T19:04:15.514Z,96279.19
2022-08-03T19:06:43.445Z,96277.25
2022-08-03T19:09:10.580Z,96276.88
2022-08-03T19:12:14.534Z,96281.53
2022-08-03T19:14:28.805Z,96288.53
2022-08-03T19:16:55.867Z,96293.09
2022-08-03T19:19:22.679Z,96293.53
2022-08-03T19:21:51.162Z,96301.66
2022-08-03T19:24:17.573Z,96306.69
2022-08-03T19:26:46.802Z,96309.41
2022-08-03T19:29:18.591Z,96304.81
2022-08-03T19:31:59.182Z,96300.16
2022-08-03T19:34:26.340Z,96316.06
2022-08-03T19:36:54.008Z,96312.16
2022-08-03T19:39:20.442Z,96311.41
2022-08-03T19:41:51.512Z,96314.13
2022-08-03T19:44:19.901Z,96319.94
2022-08-03T19:46:46.732Z,96318.53
2022-08-03T19:49:15.162Z,96314.28
2022-08-03T19:52:00.594Z,96321.31
2022-08-03T19:54:29.519Z,96319.63
2022-08-03T19:56:56.548Z,96320.59
2022-08-03T19:59:22.980Z,96323.22
2022-08-03T20:01:52.819Z,96325.88
2022-08-03T20:04:20.481Z,96320.19
2022-08-03T20:06:47.024Z,96325.09
2022-08-03T20:09:16.087Z,96324.75
2022-08-03T20:11:45.035Z,96329.75
2022-08-03T20:14:11.648Z,96331.56
2022-08-03T20:16:39.747Z,96335.00
2022-08-03T20:19:14.156Z,96329.72
2022-08-03T20:21:40.753Z,96327.94
2022-08-03T20:24:23.710Z,96324.06
2022-08-03T20:26:51.753Z,96316.72
2022-08-03T20:29:19.831Z,96329.88
2022-08-03T20:32:06.217Z,96336.13
2022-08-03T20:34:32.869Z,96332.66
2022-08-03T20:36:59.280Z,96330.78
2022-08-03T20:39:26.445Z,96339.66
2022-08-03T20:41:53.882Z,96341.56
2022-08-03T20:44:25.953Z,96338.44
2022-08-03T20:47:00.259Z,96342.16
2022-08-03T20:49:27.222Z,96344.13
2022-08-03T20:51:53.851Z,96341.75
2022-08-03T20:54:23.105Z,96334.03
2022-08-03T20:56:56.448Z,96338.31
2022-08-03T20:59:22.857Z,96336.47
2022-08-03T21:01:50.581Z,96337.91
2022-08-03T21:04:21.100Z,96336.47
2022-08-03T21:06:53.360Z,96338.47
2022-08-03T21:09:20.045Z,96340.75
2022-08-03T21:11:46.502Z,96342.84
2022-08-03T21:13:05.549Z,96249.44
2022-08-03T21:14:12.953Z,96343.59
2022-08-03T21:16:39.362Z,96339.56
2022-08-03T21:19:05.774Z,96337.88
2022-08-03T21:21:32.186Z,96332.00
2022-08-03T21:23:58.597Z,96337.13
2022-08-03T21:26:25.016Z,96333.66
2022-08-03T21:28:51.423Z,96333.22
2022-08-03T21:31:24.249Z,96332.19
2022-08-03T21:33:52.240Z,96335.59
2022-08-03T21:36:18.649Z,96337.16
2022-08-03T21:38:47.585Z,96333.94
2022-08-03T21:41:23.142Z,96333.94
2022-08-03T21:43:49.561Z,96336.34
2022-08-03T21:46:15.966Z,96330.47
2022-08-03T21:48:42.366Z,96332.81
2022-08-03T21:51:08.780Z,96333.66
2022-08-03T21:54:02.613Z,96337.47
2022-08-03T21:56:21.585Z,96326.84
2022-08-03T21:58:51.058Z,96340.41
2022-08-03T22:01:18.382Z,96334.22
2022-08-03T22:03:52.895Z,96338.34
2022-08-03T22:06:20.246Z,96341.75
2022-08-03T22:08:46.653Z,96350.38
2022-08-03T22:11:13.057Z,96346.53
2022-08-03T22:13:44.310Z,96349.00
2022-08-03T22:16:11.049Z,96352.75
2022-08-03T22:18:37.452Z,96352.75
2022-08-03T22:21:03.856Z,96359.25
2022-08-03T22:23:30.277Z,96359.44
2022-08-03T22:25:56.708Z,96360.53
2022-08-03T22:28:23.107Z,96365.81
2022-08-03T22:30:49.515Z,96364.25
2022-08-03T22:33:15.938Z,96372.03
2022-08-03T22:35:47.208Z,96367.34
2022-08-03T22:38:14.751Z,96374.69
2022-08-03T22:40:41.166Z,96371.63
2022-08-03T22:43:07.571Z,96369.03
2022-08-03T22:46:09.159Z,96369.50
2022-08-03T22:48:20.459Z,96383.00
2022-08-03T22:50:46.871Z,96375.69
2022-08-03T22:53:13.278Z,96382.47
2022-08-03T22:55:39.689Z,96373.13
2022-08-03T22:58:06.094Z,96372.50
2022-08-03T23:00:32.514Z,96379.63
2022-08-03T23:02:58.953Z,96375.44
2022-08-03T23:06:02.460Z,96373.06
2022-08-03T23:08:11.818Z,96371.13
2022-08-03T23:10:40.724Z,96372.00
2022-08-03T23:13:10.093Z,96369.31
2022-08-03T23:15:36.529Z,96368.91
2022-08-03T23:18:02.940Z,96372.38
2022-08-03T23:20:29.349Z,96370.50
2022-08-03T23:22:55.775Z,96373.22
2022-08-03T23:25:22.187Z,96362.75
2022-08-03T23:27:48.587Z,96368.63
2022-08-03T23:30:31.250Z,96378.78
2022-08-03T23:32:58.043Z,96388.19
2022-08-03T23:35:24.448Z,96392.97
2022-08-03T23:38:22.664Z,96402.91
2022-08-03T23:40:51.349Z,96399.31
2022-08-03T23:43:18.860Z,96407.69
2022-08-03T23:46:04.398Z,96398.78
2022-08-03T23:48:30.905Z,96402.72
2022-08-03T23:50:57.312Z,96398.47
2022-08-03T23:53:23.721Z,96395.41
2022-08-03T23:55:50.150Z,96393.13
2022-08-03T23:58:16.571Z,96399.31
